Terminal Aerodrome Forecast
Issued by NWS

Home | Current Version | Previous Version | Text Only | Print | Product List | Glossary On
Versions: 1 2 3 4 5 6 7 8 9 10 11 12 13 14 15 16 17 18 19 20 21 22 23 24 25 26 27 28 29 30 31 32 33 34 35 36
191
FTUS45 KBOI 051133
TAFBKE
TAF
KBKE 051133Z 0512/0612 VRB03KT P6SM SCT150
     FM060000 12007KT P6SM VCSH BKN070
     FM060700 VRB06KT 3SM -SN BR OVC025=

USA.gov is the U.S. government's official web portal to all federal, state and local government web resources and services.